Time;durP1;ratioP1;P1;durP2;ratioP2;P2;SDS_P1;SDS_P2;PMS_P1;PMS_P2;Temp;Humidity;BMP_temperature;BMP_pressure;BME280_temperature;BME280_humidity;BME280_pressure;Samples;Min_cycle;Max_cycle;Signal;HPM_P1;HPM_P2
2022/03/23 00:00:21;;;;;;;19.10;11.10;;;10.50;41.30;;;;;;5078295;28;20658;-42
2022/03/23 00:02:50;;;;;;;18.47;12.30;;;10.60;41.50;;;;;;5077828;28;20474;-47
2022/03/23 00:05:17;;;;;;;19.40;10.00;;;10.50;41.50;;;;;;5078399;28;20465;-40
2022/03/23 00:07:44;;;;;;;17.47;11.50;;;10.50;41.70;;;;;;5077856;28;20490;-47
2022/03/23 00:10:15;;;;;;;19.43;11.70;;;10.40;41.80;;;;;;5077963;28;20447;-49
2022/03/23 00:12:42;;;;;;;17.60;11.53;;;10.30;42.00;;;;;;5077865;28;20461;-46
2022/03/23 00:15:09;;;;;;;16.87;12.13;;;10.30;42.00;;;;;;5077548;28;20463;-48
2022/03/23 00:17:39;;;;;;;16.27;10.43;;;10.30;42.00;;;;;;5077719;28;20431;-50
2022/03/23 00:20:07;;;;;;;29.63;11.27;;;10.30;42.10;;;;;;5077355;28;20478;-46
2022/03/23 00:22:34;;;;;;;18.47;11.40;;;10.30;42.20;;;;;;5077996;28;20436;-45
2022/03/23 00:25:01;;;;;;;19.50;12.67;;;10.30;42.30;;;;;;5077887;28;20423;-45
2022/03/23 00:27:29;;;;;;;16.63;10.37;;;10.30;42.20;;;;;;5077748;28;20483;-42
2022/03/23 00:29:55;;;;;;;17.07;11.23;;;10.30;42.50;;;;;;5077388;28;20447;-45
2022/03/23 00:32:22;;;;;;;23.13;12.53;;;10.20;42.30;;;;;;5077408;28;20463;-44
2022/03/23 00:34:49;;;;;;;18.67;10.90;;;10.20;42.40;;;;;;5077364;28;20559;-43
2022/03/23 00:37:16;;;;;;;20.17;12.00;;;10.10;42.60;;;;;;5077754;28;20454;-40
2022/03/23 00:39:42;;;;;;;15.37;11.50;;;10.10;42.60;;;;;;5077332;28;20456;-45
2022/03/23 00:42:09;;;;;;;16.80;11.30;;;10.10;42.60;;;;;;5077006;28;20447;-45
2022/03/23 00:44:37;;;;;;;17.93;11.10;;;10.10;42.70;;;;;;5077207;28;20471;-46
2022/03/23 00:47:04;;;;;;;17.13;10.93;;;10.00;42.70;;;;;;5077006;28;20455;-48
2022/03/23 00:49:31;;;;;;;15.17;10.80;;;10.10;43.00;;;;;;5077339;28;20447;-44
2022/03/23 00:51:58;;;;;;;16.43;10.63;;;10.10;43.00;;;;;;5077525;28;20440;-46
2022/03/23 00:54:26;;;;;;;21.53;12.27;;;10.00;43.60;;;;;;5077180;28;20455;-44
2022/03/23 00:56:53;;;;;;;22.93;11.60;;;10.00;43.20;;;;;;5076815;28;20459;-42
2022/03/23 00:59:22;;;;;;;25.00;13.50;;;9.90;44.20;;;;;;5076735;28;20443;-48
2022/03/23 01:01:52;;;;;;;19.03;10.47;;;9.80;44.40;;;;;;5076780;28;21002;-49
2022/03/23 01:04:19;;;;;;;18.30;11.80;;;9.80;44.60;;;;;;5077063;28;20507;-45
2022/03/23 01:06:46;;;;;;;19.60;11.20;;;9.70;44.50;;;;;;5076974;28;20482;-46
2022/03/23 01:09:14;;;;;;;32.40;12.40;;;9.70;44.60;;;;;;5076009;28;20465;-46
2022/03/23 01:11:41;;;;;;;18.97;10.33;;;9.70;44.80;;;;;;5076432;28;20443;-47
2022/03/23 01:14:08;;;;;;;20.43;11.00;;;9.70;45.20;;;;;;5076353;28;20455;-48
2022/03/23 01:16:35;;;;;;;19.20;10.50;;;9.60;45.20;;;;;;5076416;28;20439;-45
2022/03/23 01:19:03;;;;;;;21.20;13.17;;;9.60;45.40;;;;;;5075918;28;20469;-40
2022/03/23 01:21:30;;;;;;;19.57;11.23;;;9.60;45.50;;;;;;5076317;28;20439;-47
2022/03/23 01:23:56;;;;;;;18.33;11.67;;;9.60;45.20;;;;;;5076689;28;20459;-44
2022/03/23 01:26:23;;;;;;;19.93;11.33;;;9.70;45.40;;;;;;5076135;28;20475;-47
2022/03/23 01:28:50;;;;;;;20.87;11.97;;;9.70;45.20;;;;;;5076019;28;20454;-42
2022/03/23 01:31:17;;;;;;;20.17;11.10;;;9.60;45.20;;;;;;5076073;28;20481;-46
2022/03/23 01:33:43;;;;;;;17.80;11.10;;;9.60;45.50;;;;;;5076299;28;20450;-45
2022/03/23 01:36:11;;;;;;;20.87;12.00;;;9.60;45.40;;;;;;5076289;28;20432;-41
2022/03/23 01:38:38;;;;;;;19.23;11.40;;;9.60;45.50;;;;;;5076237;28;20478;-51
2022/03/23 01:41:05;;;;;;;19.97;11.23;;;9.60;45.50;;;;;;5076506;28;20474;-44
2022/03/23 01:43:33;;;;;;;18.33;11.47;;;9.60;45.70;;;;;;5076258;28;20490;-43
2022/03/23 01:46:00;;;;;;;18.90;11.40;;;9.60;45.80;;;;;;5076231;28;20482;-42
2022/03/23 01:48:26;;;;;;;18.87;10.03;;;9.60;45.90;;;;;;5075927;28;20482;-44
2022/03/23 01:50:53;;;;;;;16.20;11.60;;;9.60;45.90;;;;;;5075946;28;20438;-45
2022/03/23 01:53:23;;;;;;;19.23;12.17;;;9.60;46.20;;;;;;5074771;28;20453;-40
2022/03/23 01:55:50;;;;;;;16.40;11.30;;;9.60;46.20;;;;;;5075753;28;20463;-51
2022/03/23 01:58:20;;;;;;;20.50;11.73;;;9.50;46.30;;;;;;5076004;28;20435;-47
2022/03/23 02:00:47;;;;;;;21.47;12.20;;;9.50;46.70;;;;;;5075863;28;20475;-45
2022/03/23 02:03:13;;;;;;;18.37;11.30;;;9.40;46.90;;;;;;5076660;28;20443;-43
2022/03/23 02:05:40;;;;;;;22.83;12.90;;;9.40;47.00;;;;;;5076258;28;20451;-49
2022/03/23 02:08:10;;;;;;;20.70;11.70;;;9.40;47.00;;;;;;5076372;28;20474;-46
2022/03/23 02:10:38;;;;;;;19.07;11.87;;;9.40;47.10;;;;;;5076516;28;20439;-48
2022/03/23 02:13:06;;;;;;;18.00;12.23;;;9.40;47.20;;;;;;5076257;28;20471;-51
2022/03/23 02:15:35;;;;;;;21.30;12.60;;;9.30;47.70;;;;;;5076348;28;20448;-43
2022/03/23 02:18:01;;;;;;;21.77;11.63;;;9.30;47.40;;;;;;5076635;28;20420;-43
2022/03/23 02:20:28;;;;;;;18.50;10.87;;;9.30;47.20;;;;;;5076291;28;20435;-49
2022/03/23 02:22:56;;;;;;;17.70;11.13;;;9.30;47.20;;;;;;5076373;28;20458;-47
2022/03/23 02:25:26;;;;;;;20.07;12.10;;;9.20;48.20;;;;;;5076279;28;20477;-49
2022/03/23 02:27:54;;;;;;;24.83;13.10;;;9.20;47.90;;;;;;5076054;28;20467;-46
2022/03/23 02:30:22;;;;;;;20.23;12.20;;;9.10;47.90;;;;;;5076190;28;20473;-49
2022/03/23 02:32:49;;;;;;;16.63;11.13;;;9.00;48.20;;;;;;5076360;28;20841;-43
2022/03/23 02:35:16;;;;;;;19.33;13.30;;;9.00;48.90;;;;;;5075855;28;20423;-48
2022/03/23 02:37:43;;;;;;;17.73;11.80;;;8.90;48.40;;;;;;5076093;28;20432;-50
2022/03/23 02:40:11;;;;;;;25.20;12.33;;;8.90;48.50;;;;;;5075851;28;20462;-52
2022/03/23 02:42:38;;;;;;;23.27;12.30;;;8.80;48.60;;;;;;5076000;28;20459;-46
2022/03/23 02:45:06;;;;;;;22.00;12.40;;;8.80;48.90;;;;;;5075913;28;20455;-47
2022/03/23 02:47:33;;;;;;;18.20;12.13;;;8.80;48.90;;;;;;5076208;28;20516;-44
2022/03/23 02:50:01;;;;;;;26.30;12.37;;;8.80;48.90;;;;;;5075794;28;20424;-42
2022/03/23 02:52:28;;;;;;;19.97;12.20;;;8.80;49.00;;;;;;5075802;28;20470;-45
2022/03/23 03:03:44;;;;;;;16.20;11.80;;;8.70;49.10;;;;;;5075945;28;20407;-48
2022/03/23 03:06:10;;;;;;;19.80;12.20;;;8.70;49.00;;;;;;5075701;28;20446;-44
2022/03/23 03:08:47;;;;;;;28.57;11.90;;;8.70;49.10;;;;;;5075719;28;20475;-47
2022/03/23 03:11:14;;;;;;;19.60;12.60;;;8.70;49.20;;;;;;5075479;28;20478;-49
2022/03/23 03:13:43;;;;;;;19.77;12.37;;;8.70;49.30;;;;;;5075698;28;20470;-45
2022/03/23 03:16:10;;;;;;;20.80;13.23;;;8.60;49.50;;;;;;5066814;28;21116;-51
2022/03/23 03:18:36;;;;;;;18.23;11.50;;;8.60;49.60;;;;;;5056847;28;20940;-48
2022/03/23 03:21:05;;;;;;;19.10;12.27;;;8.60;49.60;;;;;;5056354;28;20461;-47
2022/03/23 03:23:33;;;;;;;17.93;11.23;;;8.50;49.70;;;;;;5056930;28;20472;-49
2022/03/23 03:26:01;;;;;;;20.60;13.20;;;8.50;49.90;;;;;;5056400;28;20465;-48
2022/03/23 03:28:28;;;;;;;16.73;11.63;;;8.40;50.20;;;;;;5075320;28;20478;-43
2022/03/23 03:30:57;;;;;;;21.10;13.13;;;8.40;50.20;;;;;;5076430;28;20427;-47
2022/03/23 03:33:24;;;;;;;20.63;12.60;;;8.30;50.20;;;;;;5080081;28;20443;-45
2022/03/23 03:35:50;;;;;;;24.27;13.00;;;8.30;50.70;;;;;;5079573;28;20451;-46
2022/03/23 03:38:18;;;;;;;22.27;12.27;;;8.20;50.60;;;;;;5079792;28;20439;-44
2022/03/23 03:40:45;;;;;;;21.87;12.33;;;8.20;50.90;;;;;;5078969;28;20471;-40
2022/03/23 03:43:12;;;;;;;17.13;10.37;;;8.20;51.00;;;;;;5079326;28;20483;-47
2022/03/23 03:45:40;;;;;;;18.80;12.77;;;8.10;50.90;;;;;;5079117;28;20476;-49
2022/03/23 03:48:08;;;;;;;19.10;11.17;;;8.10;51.10;;;;;;5079113;28;20479;-42
2022/03/23 03:50:35;;;;;;;25.77;14.90;;;8.10;51.20;;;;;;5078338;28;20477;-49
2022/03/23 03:53:03;;;;;;;26.80;12.87;;;8.10;51.20;;;;;;5078727;28;20523;-48
2022/03/23 03:55:30;;;;;;;29.73;13.90;;;8.10;51.30;;;;;;5079401;28;20451;-40
2022/03/23 03:57:59;;;;;;;17.33;11.67;;;8.10;51.50;;;;;;5079318;28;20443;-46
2022/03/23 04:00:28;;;;;;;19.30;11.50;;;8.00;51.50;;;;;;5078967;28;20411;-47
2022/03/23 04:02:55;;;;;;;26.40;13.60;;;8.00;51.70;;;;;;5078909;28;20451;-45
2022/03/23 04:05:23;;;;;;;25.10;13.33;;;8.00;51.80;;;;;;5078567;28;20490;-46
2022/03/23 04:07:50;;;;;;;23.20;12.97;;;8.00;51.60;;;;;;5078628;28;20475;-46
2022/03/23 04:10:16;;;;;;;22.80;12.70;;;8.00;51.50;;;;;;5079098;28;20455;-49
2022/03/23 04:12:43;;;;;;;16.40;11.90;;;7.90;51.40;;;;;;5078528;28;20474;-44
2022/03/23 04:15:10;;;;;;;24.93;12.73;;;7.90;51.60;;;;;;5078944;28;20439;-43
2022/03/23 04:17:36;;;;;;;27.77;14.20;;;7.90;51.90;;;;;;5078379;28;20458;-43
2022/03/23 04:20:04;;;;;;;18.93;12.17;;;7.80;51.60;;;;;;5078689;28;20439;-46
2022/03/23 04:22:32;;;;;;;21.30;11.30;;;7.80;52.20;;;;;;5078977;28;20455;-44
2022/03/23 04:24:58;;;;;;;18.30;11.93;;;7.80;52.10;;;;;;5078612;28;20440;-45
2022/03/23 04:27:25;;;;;;;22.20;12.47;;;7.70;52.30;;;;;;5078309;28;20489;-44
2022/03/23 04:29:52;;;;;;;19.50;12.30;;;7.60;52.30;;;;;;5078559;28;20423;-49
2022/03/23 04:32:18;;;;;;;21.90;11.63;;;7.60;52.40;;;;;;5078532;28;20451;-45
2022/03/23 04:34:48;;;;;;;18.93;12.10;;;7.60;52.50;;;;;;5078386;28;20477;-48
2022/03/23 04:37:15;;;;;;;19.97;12.37;;;7.60;52.40;;;;;;5078404;28;20449;-49
2022/03/23 04:39:43;;;;;;;27.30;12.40;;;7.60;52.40;;;;;;5077197;28;20452;-49
2022/03/23 04:42:09;;;;;;;25.93;13.10;;;7.60;52.50;;;;;;5076393;28;20435;-53
2022/03/23 04:44:36;;;;;;;23.33;12.90;;;7.60;52.60;;;;;;5076238;28;20439;-43
2022/03/23 04:47:03;;;;;;;29.20;13.53;;;7.70;52.50;;;;;;5073031;28;20451;-49
2022/03/23 04:49:30;;;;;;;18.80;11.33;;;7.70;52.50;;;;;;5069704;28;20455;-45
2022/03/23 04:51:56;;;;;;;27.13;13.70;;;7.70;52.80;;;;;;5069805;28;20502;-48
2022/03/23 04:54:23;;;;;;;19.30;13.10;;;7.60;53.10;;;;;;5069271;28;20820;-46
2022/03/23 04:56:54;;;;;;;27.67;13.17;;;7.60;53.50;;;;;;5069648;28;21075;-50
2022/03/23 04:59:21;;;;;;;18.23;12.40;;;7.60;53.40;;;;;;5069955;28;20435;-47
2022/03/23 05:01:48;;;;;;;20.30;12.07;;;7.60;53.40;;;;;;5069218;28;20471;-48
2022/03/23 05:04:15;;;;;;;27.13;12.03;;;7.60;53.30;;;;;;5069849;28;20496;-49
2022/03/23 05:06:42;;;;;;;18.03;12.97;;;7.50;53.40;;;;;;5069584;28;20457;-47
2022/03/23 05:09:08;;;;;;;21.43;12.70;;;7.60;53.70;;;;;;5069334;28;20892;-46
2022/03/23 05:11:35;;;;;;;19.53;13.40;;;7.60;53.50;;;;;;5069186;28;20928;-52
2022/03/23 05:14:03;;;;;;;27.40;14.80;;;7.60;53.40;;;;;;5069520;28;20444;-52
2022/03/23 05:16:29;;;;;;;26.20;15.37;;;7.60;53.60;;;;;;5069076;28;20981;-47
2022/03/23 05:18:56;;;;;;;25.43;13.77;;;7.60;53.50;;;;;;5069943;28;20509;-53
2022/03/23 05:21:23;;;;;;;22.17;14.00;;;7.60;53.70;;;;;;5070205;28;20928;-48
2022/03/23 05:23:50;;;;;;;25.60;14.20;;;7.60;53.60;;;;;;5069183;28;20458;-49
2022/03/23 05:26:17;;;;;;;23.70;13.37;;;7.60;53.50;;;;;;5069353;28;20529;-47
2022/03/23 05:28:44;;;;;;;21.40;13.73;;;7.60;53.40;;;;;;5069407;28;20463;-46
2022/03/23 05:31:12;;;;;;;25.80;12.77;;;7.70;53.50;;;;;;5069071;28;20470;-52
2022/03/23 05:33:38;;;;;;;22.57;13.70;;;7.70;53.50;;;;;;5069066;28;20466;-49
2022/03/23 05:36:05;;;;;;;19.13;12.70;;;7.70;53.20;;;;;;5069063;28;20509;-49
2022/03/23 05:38:32;;;;;;;26.47;13.17;;;7.80;53.20;;;;;;5068196;28;20535;-50
2022/03/23 05:40:59;;;;;;;22.83;13.10;;;7.80;53.40;;;;;;5068893;28;20455;-52
2022/03/23 05:43:26;;;;;;;19.73;12.73;;;7.80;53.20;;;;;;5068801;28;20467;-49
2022/03/23 05:45:52;;;;;;;23.00;12.73;;;7.90;53.20;;;;;;5069142;28;20428;-51
2022/03/23 05:48:20;;;;;;;20.33;12.47;;;7.90;53.60;;;;;;5068499;28;20491;-53
2022/03/23 05:50:48;;;;;;;29.37;14.10;;;7.90;52.70;;;;;;5068709;28;20443;-50
2022/03/23 05:53:15;;;;;;;18.90;12.33;;;7.90;52.60;;;;;;5068883;28;20442;-48
2022/03/23 05:55:42;;;;;;;19.23;12.90;;;8.00;52.60;;;;;;5068200;28;20450;-49
2022/03/23 05:58:09;;;;;;;22.07;13.30;;;7.90;52.60;;;;;;5068378;28;20444;-51
2022/03/23 06:00:36;;;;;;;19.27;12.00;;;8.00;52.60;;;;;;5066978;28;20471;-46
2022/03/23 06:03:02;;;;;;;20.80;13.13;;;8.00;52.50;;;;;;5067798;28;20470;-47
2022/03/23 06:05:30;;;;;;;25.40;13.20;;;8.00;52.50;;;;;;5067170;28;20493;-52
2022/03/23 06:07:57;;;;;;;31.07;14.10;;;8.10;52.60;;;;;;5068673;28;20471;-51
2022/03/23 06:10:24;;;;;;;24.60;12.93;;;8.10;52.60;;;;;;5068084;28;20762;-50
2022/03/23 06:12:51;;;;;;;20.73;12.87;;;8.10;52.60;;;;;;5067384;28;20443;-53
2022/03/23 06:15:18;;;;;;;20.30;13.70;;;8.10;52.60;;;;;;5067716;28;20447;-53
2022/03/23 06:17:45;;;;;;;22.53;13.93;;;8.10;52.80;;;;;;5067108;28;20470;-45
2022/03/23 06:20:13;;;;;;;20.40;13.20;;;8.20;52.70;;;;;;5067592;28;20474;-44
2022/03/23 06:22:41;;;;;;;23.93;13.60;;;8.20;52.60;;;;;;5066603;28;20475;-47
2022/03/23 06:25:09;;;;;;;30.27;14.27;;;8.20;52.60;;;;;;5067048;28;20493;-49
2022/03/23 06:27:36;;;;;;;19.80;13.43;;;8.20;52.50;;;;;;5067330;28;20432;-50
2022/03/23 06:30:04;;;;;;;25.20;15.33;;;8.30;52.50;;;;;;5067705;28;21000;-54
2022/03/23 06:32:31;;;;;;;22.07;13.50;;;8.20;52.40;;;;;;5067078;28;20460;-51
2022/03/23 06:34:57;;;;;;;25.67;13.50;;;8.20;52.60;;;;;;5067831;28;20479;-49
2022/03/23 06:37:24;;;;;;;22.27;14.10;;;8.20;52.40;;;;;;5067062;28;20470;-49
2022/03/23 06:39:52;;;;;;;21.93;14.57;;;8.20;52.50;;;;;;5066436;28;20539;-47
2022/03/23 06:42:19;;;;;;;25.50;13.67;;;8.30;52.30;;;;;;5064354;28;20444;-48
2022/03/23 06:44:46;;;;;;;27.70;14.40;;;8.30;52.30;;;;;;5066520;28;20500;-51
2022/03/23 06:47:13;;;;;;;32.93;13.87;;;8.30;52.40;;;;;;5066730;28;20503;-46
2022/03/23 06:49:40;;;;;;;27.73;17.00;;;8.40;52.40;;;;;;5066917;28;20505;-53
2022/03/23 06:52:07;;;;;;;23.13;14.47;;;8.40;52.30;;;;;;5065885;28;20481;-49
2022/03/23 06:54:34;;;;;;;30.60;15.63;;;8.50;52.30;;;;;;5053675;28;20804;-48
2022/03/23 06:57:02;;;;;;;21.70;15.50;;;8.50;52.20;;;;;;5065303;28;20471;-45
2022/03/23 06:59:28;;;;;;;29.20;13.53;;;8.50;52.30;;;;;;5065545;28;20447;-48
2022/03/23 07:01:55;;;;;;;19.10;13.03;;;8.50;52.20;;;;;;5065565;28;20498;-49
2022/03/23 07:04:24;;;;;;;24.80;14.40;;;8.60;52.20;;;;;;5064807;28;20448;-50
2022/03/23 07:06:51;;;;;;;24.60;14.07;;;8.60;52.10;;;;;;5066503;28;20494;-49
2022/03/23 07:09:32;;;;;;;22.13;12.50;;;8.80;52.10;;;;;;5068588;28;20471;-52
2022/03/23 07:11:59;;;;;;;24.47;15.50;;;8.80;52.00;;;;;;5068286;28;20446;-48
2022/03/23 07:14:28;;;;;;;23.50;13.27;;;8.80;52.00;;;;;;5067691;28;20439;-54
2022/03/23 07:16:55;;;;;;;26.77;15.00;;;8.90;52.00;;;;;;5068171;28;20775;-47
2022/03/23 07:19:22;;;;;;;27.90;14.40;;;9.00;51.80;;;;;;5068043;28;20470;-49
2022/03/23 07:21:49;;;;;;;21.93;13.20;;;9.10;51.50;;;;;;5068333;28;20972;-51
2022/03/23 07:24:16;;;;;;;23.07;13.73;;;9.20;51.60;;;;;;5067422;28;20545;-49
2022/03/23 07:26:42;;;;;;;27.07;15.60;;;9.40;51.40;;;;;;5066400;28;20435;-50
2022/03/23 07:29:09;;;;;;;23.90;14.23;;;9.40;51.40;;;;;;5061900;28;20487;-48
2022/03/23 07:31:37;;;;;;;25.80;13.63;;;9.50;51.10;;;;;;5061754;28;20528;-53
2022/03/23 07:34:04;;;;;;;26.63;13.40;;;9.70;51.30;;;;;;5061881;28;20485;-50
2022/03/23 07:36:32;;;;;;;19.50;13.03;;;9.80;50.50;;;;;;5061539;28;20446;-48
2022/03/23 07:38:59;;;;;;;25.87;12.30;;;9.90;50.20;;;;;;5061017;28;20620;-49
2022/03/23 07:41:25;;;;;;;27.03;14.93;;;10.00;49.00;;;;;;5061452;28;20803;-50
2022/03/23 07:43:52;;;;;;;24.43;13.17;;;10.20;48.60;;;;;;5060871;28;20528;-49
2022/03/23 07:46:18;;;;;;;24.50;14.13;;;10.30;48.50;;;;;;5061269;28;20508;-51
2022/03/23 07:48:47;;;;;;;22.27;12.37;;;10.30;48.90;;;;;;5061063;28;20537;-49
2022/03/23 07:51:15;;;;;;;21.53;13.40;;;10.40;49.00;;;;;;5061503;28;20427;-53
2022/03/23 07:53:42;;;;;;;24.03;13.60;;;10.50;48.90;;;;;;5061546;28;20450;-49
2022/03/23 07:56:09;;;;;;;21.93;12.60;;;10.60;48.50;;;;;;5060945;28;20463;-48
2022/03/23 07:58:35;;;;;;;18.83;13.33;;;10.70;47.80;;;;;;5061255;28;20524;-50
2022/03/23 08:01:02;;;;;;;26.70;15.00;;;10.70;47.70;;;;;;5060937;28;20532;-49
2022/03/23 08:03:29;;;;;;;25.07;13.70;;;10.90;47.80;;;;;;5060654;28;20431;-54
2022/03/23 08:05:57;;;;;;;28.57;14.43;;;11.00;47.60;;;;;;5060517;28;20451;-51
2022/03/23 08:08:24;;;;;;;25.93;15.80;;;11.10;47.30;;;;;;5060421;28;21015;-53
2022/03/23 08:10:50;;;;;;;34.23;14.03;;;11.20;47.50;;;;;;5060886;28;20505;-48
2022/03/23 08:13:17;;;;;;;23.43;14.50;;;11.30;47.50;;;;;;5060238;28;20471;-47
2022/03/23 08:15:45;;;;;;;24.03;15.57;;;11.40;47.10;;;;;;5060678;28;20466;-50
2022/03/23 08:18:14;;;;;;;19.70;13.00;;;11.50;47.20;;;;;;5060308;28;20454;-48
2022/03/23 08:20:42;;;;;;;19.77;13.27;;;11.60;46.90;;;;;;5060450;28;20451;-50
2022/03/23 08:23:15;;;;;;;22.40;12.87;;;11.70;46.70;;;;;;5060338;28;20461;-51
2022/03/23 08:25:44;;;;;;;26.60;13.23;;;11.90;45.90;;;;;;5059739;28;20506;-48
2022/03/23 08:28:14;;;;;;;20.97;13.40;;;12.10;45.40;;;;;;5059565;28;20454;-48
2022/03/23 08:30:43;;;;;;;23.77;13.90;;;12.40;45.20;;;;;;5059702;28;20463;-51
2022/03/23 08:33:09;;;;;;;31.30;14.70;;;13.80;45.20;;;;;;5058784;28;20545;-53
2022/03/23 08:35:37;;;;;;;23.73;14.80;;;15.90;43.10;;;;;;5058172;28;20451;-48
2022/03/23 08:38:04;;;;;;;21.00;15.10;;;18.10;39.70;;;;;;5056992;28;20498;-54
2022/03/23 08:40:32;;;;;;;26.00;16.20;;;20.20;36.60;;;;;;5057938;28;20471;-54
2022/03/23 08:42:59;;;;;;;27.50;17.43;;;22.20;34.80;;;;;;5060541;28;20451;-48
2022/03/23 08:45:26;;;;;;;26.13;15.17;;;24.20;33.20;;;;;;5059518;28;20525;-49
2022/03/23 08:47:54;;;;;;;24.67;15.77;;;25.90;30.70;;;;;;5059390;28;20448;-54
2022/03/23 08:50:20;;;;;;;25.90;16.93;;;27.10;29.80;;;;;;5059558;28;20491;-51
2022/03/23 08:52:52;;;;;;;20.97;16.90;;;28.10;28.10;;;;;;5059444;28;20451;-51
2022/03/23 08:55:19;;;;;;;15.60;13.87;;;28.60;27.80;;;;;;5059376;28;20432;-51
2022/03/23 08:57:47;;;;;;;19.70;17.37;;;29.30;27.00;;;;;;5059477;28;20465;-48
2022/03/23 09:00:15;;;;;;;24.27;17.80;;;29.40;26.70;;;;;;5058959;28;20474;-48
2022/03/23 09:02:43;;;;;;;19.20;15.80;;;29.40;26.40;;;;;;5058671;28;20467;-52
2022/03/23 09:05:14;;;;;;;22.70;17.63;;;29.40;26.10;;;;;;5059250;28;20455;-50
2022/03/23 09:07:41;;;;;;;22.73;17.00;;;29.30;26.30;;;;;;5059013;28;20455;-52
2022/03/23 09:10:09;;;;;;;22.23;16.80;;;29.40;25.90;;;;;;5059165;28;20527;-48
2022/03/23 09:12:36;;;;;;;19.47;15.47;;;29.40;25.90;;;;;;5058728;28;20474;-51
2022/03/23 09:15:06;;;;;;;21.10;17.57;;;29.20;25.90;;;;;;5059246;28;20570;-47
2022/03/23 09:17:33;;;;;;;30.50;18.37;;;29.10;25.90;;;;;;5058570;28;20451;-47
2022/03/23 09:20:01;;;;;;;20.00;17.27;;;28.70;26.00;;;;;;5058712;28;20451;-46
2022/03/23 09:22:28;;;;;;;20.40;16.80;;;28.30;26.10;;;;;;5058943;28;20489;-50
2022/03/23 09:24:55;;;;;;;23.73;16.43;;;27.80;26.20;;;;;;5058907;28;20547;-47
2022/03/23 09:27:22;;;;;;;19.83;15.67;;;27.70;26.20;;;;;;5059752;28;20475;-50
2022/03/23 09:29:48;;;;;;;20.30;15.00;;;27.40;26.40;;;;;;5058446;28;20844;-50
2022/03/23 09:32:17;;;;;;;19.53;16.53;;;27.30;26.50;;;;;;5058563;28;20958;-52
2022/03/23 09:34:45;;;;;;;22.67;15.67;;;27.00;26.60;;;;;;5058647;28;20912;-51
2022/03/23 09:39:57;;;;;;;40.00;29.63;;;25.10;27.90;;;;;;5059109;28;20449;-52
2022/03/23 09:42:26;;;;;;;22.30;16.60;;;23.80;28.40;;;;;;5059305;28;20450;-49
2022/03/23 09:44:55;;;;;;;19.30;15.13;;;22.80;29.10;;;;;;5060087;28;20571;-49
2022/03/23 09:47:23;;;;;;;22.67;14.00;;;22.20;29.70;;;;;;5060224;28;20510;-52
2022/03/23 09:49:51;;;;;;;18.43;14.17;;;22.40;29.90;;;;;;5059611;28;20544;-51
2022/03/23 09:52:18;;;;;;;22.77;14.60;;;23.10;29.60;;;;;;5060068;28;20534;-47
2022/03/23 09:54:45;;;;;;;24.23;13.83;;;24.00;28.80;;;;;;5059522;28;20458;-49
2022/03/23 09:57:13;;;;;;;19.50;15.47;;;24.80;28.30;;;;;;5059011;28;20486;-51
2022/03/23 09:59:40;;;;;;;20.10;15.67;;;25.60;28.20;;;;;;5059131;28;20482;-48
2022/03/23 10:03:00;;;;;;;16.07;13.63;;;26.50;27.20;;;;;;5058914;28;20444;-51
2022/03/23 10:06:20;;;;;;;18.70;15.77;;;27.00;27.30;;;;;;5058602;28;20535;-53
2022/03/23 10:09:21;;;;;;;20.90;14.57;;;27.60;26.60;;;;;;5059464;28;20459;-54
2022/03/23 10:12:26;;;;;;;18.13;14.80;;;27.60;26.80;;;;;;5061686;28;20454;-52
2022/03/23 10:15:38;;;;;;;18.83;13.93;;;27.70;26.80;;;;;;5061546;28;20972;-51
2022/03/23 10:18:59;;;;;;;19.13;14.50;;;27.70;27.10;;;;;;5026130;28;20440;-51
2022/03/23 10:21:28;;;;;;;19.03;14.50;;;27.80;27.00;;;;;;5061033;28;20474;-53
2022/03/23 10:24:33;;;;;;;19.73;15.00;;;27.70;27.30;;;;;;5061535;28;20447;-51
2022/03/23 10:27:10;;;;;;;22.23;15.00;;;27.70;27.00;;;;;;5061589;28;20509;-51
2022/03/23 10:29:45;;;;;;;20.60;15.37;;;27.60;27.10;;;;;;5061838;28;20464;-53
2022/03/23 10:32:14;;;;;;;17.87;14.13;;;27.40;27.10;;;;;;5061736;28;20743;-50
2022/03/23 10:34:43;;;;;;;18.77;14.53;;;27.30;27.00;;;;;;5062377;28;20467;-50
2022/03/23 10:37:13;;;;;;;17.33;14.93;;;27.20;26.70;;;;;;5061538;28;20448;-52
2022/03/23 10:39:40;;;;;;;20.57;15.33;;;27.00;27.30;;;;;;5061943;28;20958;-49
2022/03/23 10:42:14;;;;;;;19.53;12.60;;;26.80;27.30;;;;;;5061092;28;20459;-53
2022/03/23 10:44:44;;;;;;;22.53;14.30;;;26.70;27.40;;;;;;5062754;28;20712;-51
2022/03/23 10:47:22;;;;;;;19.87;15.23;;;26.70;27.50;;;;;;5062789;28;20454;-54
2022/03/23 10:49:49;;;;;;;24.70;15.93;;;26.60;27.50;;;;;;5062915;28;20574;-52
2022/03/23 10:52:19;;;;;;;18.17;14.93;;;26.60;27.70;;;;;;5062279;28;20467;-52
2022/03/23 10:54:57;;;;;;;22.20;14.93;;;26.40;27.30;;;;;;5062411;28;20466;-50
2022/03/23 10:57:55;;;;;;;20.47;14.80;;;26.20;27.60;;;;;;5062115;28;20447;-48
2022/03/23 11:00:29;;;;;;;18.23;14.33;;;25.90;28.10;;;;;;5049936;28;20455;-51
2022/03/23 11:02:55;;;;;;;20.77;15.13;;;25.60;28.10;;;;;;5061677;28;20540;-52
2022/03/23 11:05:33;;;;;;;19.50;15.70;;;25.40;28.60;;;;;;5062080;28;20451;-45
2022/03/23 11:08:08;;;;;;;21.30;15.30;;;25.20;28.10;;;;;;5062033;28;20971;-52
2022/03/23 11:16:10;;;;;;;22.03;14.53;;;24.30;28.50;;;;;;5062242;28;20458;-48
2022/03/23 11:18:38;;;;;;;18.67;14.13;;;24.00;29.30;;;;;;5062340;28;20494;-50
2022/03/23 11:21:05;;;;;;;15.77;13.00;;;23.80;28.90;;;;;;5062060;28;20444;-53
2022/03/23 11:23:35;;;;;;;18.20;16.20;;;23.60;29.30;;;;;;5061687;28;20444;-51
2022/03/23 11:26:04;;;;;;;20.50;14.77;;;23.50;29.90;;;;;;5062676;28;20443;-53
2022/03/23 11:28:35;;;;;;;24.27;15.90;;;23.20;29.50;;;;;;5062101;28;20471;-47
2022/03/23 11:31:03;;;;;;;24.00;15.50;;;23.10;29.80;;;;;;5062593;28;20510;-50
2022/03/23 11:33:32;;;;;;;20.00;14.93;;;22.80;29.40;;;;;;5063883;28;20466;-55
2022/03/23 11:36:00;;;;;;;22.23;14.80;;;22.60;30.10;;;;;;5064065;28;20444;-49
2022/03/23 11:38:28;;;;;;;19.97;12.00;;;22.40;30.10;;;;;;5063556;28;20447;-49
2022/03/23 11:40:57;;;;;;;21.80;13.07;;;22.30;30.40;;;;;;5063708;28;20525;-48
2022/03/23 11:43:26;;;;;;;21.00;13.70;;;22.10;30.50;;;;;;5063749;28;20514;-51
2022/03/23 11:45:54;;;;;;;20.07;13.67;;;21.90;30.00;;;;;;5063229;28;20439;-54
2022/03/23 11:48:31;;;;;;;21.67;14.73;;;21.60;30.00;;;;;;5063879;28;20455;-51
2022/03/23 11:51:13;;;;;;;23.57;13.80;;;21.50;30.30;;;;;;5064066;28;20523;-52
2022/03/23 11:53:51;;;;;;;17.60;13.27;;;21.40;30.60;;;;;;5067643;28;20499;-44
2022/03/23 11:56:24;;;;;;;21.70;13.63;;;21.30;30.50;;;;;;5066807;28;20454;-50
2022/03/23 11:58:52;;;;;;;21.93;15.00;;;21.20;30.00;;;;;;5067755;28;20467;-50
2022/03/23 12:01:19;;;;;;;21.50;14.40;;;21.10;31.00;;;;;;5067810;28;20507;-50
2022/03/23 12:03:53;;;;;;;20.20;13.17;;;21.10;30.20;;;;;;5067480;28;20443;-49
2022/03/23 12:06:22;;;;;;;18.83;13.20;;;21.10;30.10;;;;;;5067038;28;20438;-52
2022/03/23 12:08:55;;;;;;;18.93;13.47;;;21.00;30.20;;;;;;5066823;28;20455;-49
2022/03/23 12:11:49;;;;;;;21.03;14.93;;;21.00;30.10;;;;;;5066552;28;20554;-49
2022/03/23 12:14:24;;;;;;;23.67;14.00;;;20.90;30.60;;;;;;5065412;28;20952;-53
2022/03/23 12:17:16;;;;;;;19.87;13.07;;;21.00;30.80;;;;;;5066960;28;20467;-54
2022/03/23 12:19:58;;;;;;;21.60;11.97;;;21.00;30.40;;;;;;5067074;28;20424;-50
2022/03/23 12:22:54;;;;;;;18.30;12.63;;;21.10;30.10;;;;;;5067004;28;20496;-53
2022/03/23 12:25:25;;;;;;;19.70;13.63;;;21.10;29.80;;;;;;5067522;28;20542;-53
2022/03/23 12:27:56;;;;;;;26.10;13.10;;;21.10;29.70;;;;;;5067163;28;20455;-49
2022/03/23 12:30:38;;;;;;;19.83;13.97;;;21.00;29.80;;;;;;5066665;28;20509;-49
2022/03/23 12:33:10;;;;;;;17.40;14.27;;;21.00;30.50;;;;;;5066630;28;20428;-54
2022/03/23 12:35:37;;;;;;;18.73;12.37;;;21.00;30.00;;;;;;5067152;28;20471;-49
2022/03/23 12:38:06;;;;;;;17.47;13.20;;;21.00;30.10;;;;;;5067028;28;20444;-47
2022/03/23 12:40:40;;;;;;;23.90;14.47;;;21.00;30.40;;;;;;5067024;28;20463;-53
2022/03/23 12:43:08;;;;;;;22.53;13.63;;;21.10;30.70;;;;;;5067164;28;20431;-47
2022/03/23 12:45:39;;;;;;;16.70;13.03;;;21.20;30.70;;;;;;5067443;28;20439;-52
2022/03/23 12:57:49;;;;;;;21.90;14.40;;;21.40;30.50;;;;;;5066891;28;20501;-53
2022/03/23 12:59:19;;;;;;;20.73;15.37;;;21.80;30.00;;;;;;5066401;28;20457;-49
2022/03/23 13:01:46;;;;;;;19.00;14.80;;;21.60;30.70;;;;;;5066551;28;20458;-45
2022/03/23 13:04:52;;;;;;;20.40;13.70;;;21.60;30.30;;;;;;5065278;28;20436;-47
2022/03/23 13:07:40;;;;;;;20.83;14.77;;;21.60;30.90;;;;;;5066805;28;20474;-47
2022/03/23 13:10:09;;;;;;;17.97;14.93;;;21.70;31.30;;;;;;5067076;28;20478;-50